Main page
METAR-TAF:

METAR-TAF

Airports :

Land O' Lakes, Wisconsin, United States

latitude: 46-09-14N, longitude: 089-12-43W, elevation: 1706 ft

Current weather observation

The report was made 32 minutes ago, at 11:55 UTC
Wind 8 mph from the North/Northeast
Temperature 21°F
Humidity 73%
Pressure 29.71 in. Hg
Visibility: 10 miles
Overcast at a height of 1600 ft

METAR: KLNL 231155Z AUTO 03007KT 10SM OVC016 M06/M10 A2971 RMK AO2 T10601099 10015 21060

Time: 06:27 (12:27 UTC)


TAF: missing

Weather observations and forecasts of more than 4000 airports (METAR and TAF reports).

The available stations are represented by yellow and red dots on the map.

Hover mouse over dot to see the name of the station.

Then click to see weather observations and forecasts.

To change the map : click on the green buttons with a black cross to zoom in, on the green button with a dash to zoom out, or on the green arrows for adjacent maps.


METAR-TAF: